createdAt,value
2016-10-24T00:00:45.721Z,12.69
2016-10-24T00:01:46.061Z,12.66
2016-10-24T00:02:46.037Z,12.67
2016-10-24T00:03:45.867Z,12.71
2016-10-24T00:04:46.188Z,12.59
2016-10-24T00:05:46.574Z,12.66
2016-10-24T00:06:45.380Z,12.63
2016-10-24T00:08:00.406Z,12.71
2016-10-24T00:08:46.048Z,12.69
2016-10-24T00:09:45.652Z,12.62
2016-10-24T00:10:45.367Z,12.66
2016-10-24T00:11:45.218Z,12.63
2016-10-24T00:12:45.608Z,12.62
2016-10-24T00:13:45.902Z,12.64
2016-10-24T00:14:45.895Z,12.67
2016-10-24T00:15:46.031Z,12.7
2016-10-24T00:16:46.739Z,12.7
2016-10-24T00:17:45.464Z,12.66
2016-10-24T00:18:45.528Z,12.63
2016-10-24T00:20:00.145Z,12.57
2016-10-24T00:20:46.438Z,12.67
2016-10-24T00:22:00.071Z,12.67
2016-10-24T00:22:45.753Z,12.74
2016-10-24T00:23:45.269Z,12.75
2016-10-24T00:24:45.256Z,12.78
2016-10-24T00:25:59.502Z,12.75
2016-10-24T00:26:45.137Z,12.78
2016-10-24T00:27:44.736Z,12.79
2016-10-24T00:28:45.282Z,12.74
2016-10-24T00:29:45.535Z,12.75
2016-10-24T00:30:44.668Z,12.71
2016-10-24T00:31:45.300Z,12.69
2016-10-24T00:32:44.620Z,12.57
2016-10-24T00:33:45.061Z,12.62
2016-10-24T00:34:44.906Z,12.64
2016-10-24T00:35:45.351Z,12.64
2016-10-24T00:36:44.498Z,12.7
2016-10-24T00:37:44.580Z,12.69
2016-10-24T00:38:44.757Z,12.75
2016-10-24T00:39:44.742Z,12.67
2016-10-24T00:40:46.480Z,12.56
2016-10-24T00:41:44.683Z,12.69
2016-10-24T00:42:44.262Z,12.66
2016-10-24T00:44:44.573Z,12.67
2016-10-24T00:45:46.034Z,12.66
2016-10-24T00:46:44.931Z,12.64
2016-10-24T00:47:44.482Z,12.62
2016-10-24T00:48:44.502Z,12.69
2016-10-24T00:49:45.157Z,12.7
2016-10-24T00:51:44.522Z,12.62
2016-10-24T00:52:59.059Z,12.62
2016-10-24T00:53:44.361Z,12.52
2016-10-24T00:54:43.894Z,12.7
2016-10-24T00:55:44.489Z,12.57
2016-10-24T00:56:44.228Z,12.57
2016-10-24T00:57:58.544Z,12.57
2016-10-24T00:59:44.213Z,12.6
2016-10-24T01:00:44.224Z,12.59
2016-10-24T01:01:43.737Z,12.57
2016-10-24T01:02:43.979Z,12.62
2016-10-24T01:03:43.998Z,12.46
2016-10-24T01:04:44.309Z,12.52
2016-10-24T01:05:44.635Z,12.56
2016-10-24T01:06:58.934Z,12.6
2016-10-24T01:07:43.927Z,12.59
2016-10-24T01:08:43.915Z,12.59
2016-10-24T01:09:44.705Z,12.56
2016-10-24T01:10:44.200Z,12.6
2016-10-24T01:11:43.405Z,12.6
2016-10-24T01:12:43.732Z,12.6
2016-10-24T01:13:44.218Z,12.62
2016-10-24T01:15:58.025Z,12.52
2016-10-24T01:17:57.922Z,12.57
2016-10-24T01:18:43.541Z,12.67
2016-10-24T01:19:43.140Z,12.51
2016-10-24T01:20:43.116Z,12.64
2016-10-24T01:21:57.820Z,12.71
2016-10-24T01:22:58.274Z,12.71
2016-10-24T01:23:57.758Z,12.69
2016-10-24T01:24:43.702Z,12.7
2016-10-24T01:25:43.645Z,12.67
2016-10-24T01:26:57.789Z,12.69
2016-10-24T01:27:57.672Z,12.78
2016-10-24T01:28:44.193Z,12.74
2016-10-24T01:30:57.970Z,12.74
2016-10-24T01:31:44.298Z,12.78
2016-10-24T01:32:44.005Z,12.82
2016-10-24T01:33:43.895Z,12.71
2016-10-24T01:34:42.983Z,12.78
2016-10-24T01:35:44.312Z,12.74
2016-10-24T01:36:57.715Z,12.77
2016-10-24T01:37:44.416Z,12.75
2016-10-24T01:38:57.283Z,12.78
2016-10-24T01:39:42.580Z,12.82
2016-10-24T01:40:58.930Z,12.77
2016-10-24T01:41:43.478Z,12.71
2016-10-24T01:42:42.442Z,12.88
2016-10-24T01:43:43.912Z,12.75
2016-10-24T01:44:42.489Z,12.84
2016-10-24T01:45:44.552Z,12.87
2016-10-24T01:46:42.335Z,12.96
2016-10-24T01:47:42.302Z,12.99
2016-10-24T01:48:42.656Z,12.85
2016-10-24T01:49:42.629Z,12.93
2016-10-24T01:50:42.249Z,12.84
2016-10-24T01:51:42.588Z,12.84
2016-10-24T01:52:42.535Z,12.78
2016-10-24T01:53:42.509Z,12.78
2016-10-24T01:54:48.322Z,12.77
2016-10-24T01:55:43.325Z,12.79
2016-10-24T01:56:42.046Z,12.85
2016-10-24T01:57:41.993Z,12.89
2016-10-24T01:58:42.435Z,12.77
2016-10-24T01:59:57.010Z,12.77
2016-10-24T02:01:56.608Z,12.85
2016-10-24T02:02:41.898Z,12.82
2016-10-24T02:03:56.886Z,12.77
2016-10-24T02:04:42.532Z,12.78
2016-10-24T02:05:42.112Z,12.87
2016-10-24T02:06:42.134Z,12.88
2016-10-24T02:07:41.719Z,12.81
2016-10-24T02:08:41.759Z,12.85
2016-10-24T02:09:41.660Z,12.87
2016-10-24T02:11:42.037Z,12.81
2016-10-24T02:12:42.044Z,12.75
2016-10-24T02:13:41.553Z,12.89
2016-10-24T02:14:41.936Z,12.85
2016-10-24T02:15:41.531Z,13
2016-10-24T02:16:42.169Z,12.93
2016-10-24T02:17:56.482Z,12.89
2016-10-24T02:18:41.816Z,12.88
2016-10-24T02:19:41.499Z,12.93
2016-10-24T02:20:41.467Z,12.89
2016-10-24T02:22:41.562Z,12.95
2016-10-24T02:23:41.987Z,12.85
2016-10-24T02:24:41.442Z,12.95
2016-10-24T02:25:41.904Z,12.96
2016-10-24T02:26:41.415Z,12.84
2016-10-24T02:27:56.207Z,12.97
2016-10-24T02:28:41.415Z,12.87
2016-10-24T02:29:41.538Z,12.88
2016-10-24T02:31:41.447Z,12.84
2016-10-24T02:32:41.466Z,12.84
2016-10-24T02:35:55.562Z,12.79
2016-10-24T02:39:41.496Z,12.77
2016-10-24T02:40:55.746Z,12.78
2016-10-24T02:43:41.258Z,12.85
2016-10-24T02:45:41.504Z,12.77
2016-10-24T02:47:40.734Z,12.79
2016-10-24T02:48:40.728Z,12.82
2016-10-24T02:49:40.420Z,12.81
2016-10-24T02:50:41.451Z,12.75
2016-10-24T02:53:40.334Z,12.84
2016-10-24T02:54:40.284Z,12.85
2016-10-24T02:55:40.284Z,12.84
2016-10-24T02:58:41.332Z,12.87
2016-10-24T02:59:40.829Z,12.82
2016-10-24T03:01:40.451Z,12.78
2016-10-24T03:02:40.406Z,12.75
2016-10-24T03:03:40.001Z,12.87
2016-10-24T03:04:40.424Z,12.81
2016-10-24T03:05:54.646Z,12.89
2016-10-24T03:06:40.008Z,12.82
2016-10-24T03:07:39.900Z,12.87
2016-10-24T03:08:40.369Z,12.82
2016-10-24T03:09:39.888Z,12.85
2016-10-24T03:11:40.124Z,12.95
2016-10-24T03:12:39.739Z,12.95
2016-10-24T03:13:41.455Z,12.82
2016-10-24T03:14:39.744Z,12.92
2016-10-24T03:16:40.428Z,13
2016-10-24T03:17:39.973Z,12.95
2016-10-24T03:18:39.820Z,12.97
2016-10-24T03:19:54.229Z,12.92
2016-10-24T03:20:41.982Z,12.95
2016-10-24T03:22:39.456Z,12.88
2016-10-24T03:23:39.413Z,12.87
2016-10-24T03:24:54.059Z,12.92
2016-10-24T03:25:40.352Z,12.95
2016-10-24T03:26:39.708Z,12.96
2016-10-24T03:27:39.684Z,12.89
2016-10-24T03:28:39.515Z,12.84
2016-10-24T03:29:39.246Z,12.88
2016-10-24T03:30:42.211Z,12.89
2016-10-24T03:31:39.162Z,12.96
2016-10-24T03:32:39.163Z,12.89
2016-10-24T03:33:39.479Z,12.93
2016-10-24T03:34:39.463Z,12.88
2016-10-24T03:35:40.350Z,12.92
2016-10-24T03:36:39.432Z,12.89
2016-10-24T03:37:39.539Z,13.03
2016-10-24T03:38:38.985Z,12.99
2016-10-24T03:39:39.684Z,12.99
2016-10-24T03:40:38.891Z,13.07
2016-10-24T03:41:53.897Z,13
2016-10-24T03:42:39.692Z,13.02
2016-10-24T03:43:39.187Z,12.96
2016-10-24T03:44:38.867Z,12.97
2016-10-24T03:45:38.833Z,12.88
2016-10-24T03:46:38.736Z,12.96
2016-10-24T03:47:39.478Z,13.03
2016-10-24T03:48:38.691Z,12.99
2016-10-24T03:49:38.730Z,12.96
2016-10-24T03:50:39.023Z,12.87
2016-10-24T03:51:38.579Z,12.95
2016-10-24T03:52:53.309Z,12.88
2016-10-24T03:53:38.533Z,12.95
2016-10-24T03:54:38.508Z,12.96
2016-10-24T03:55:38.472Z,12.95
2016-10-24T03:56:38.481Z,12.96
2016-10-24T03:57:38.374Z,12.96
2016-10-24T03:58:38.365Z,12.92
2016-10-24T03:59:38.902Z,12.85
2016-10-24T04:00:53.739Z,12.87
2016-10-24T04:01:38.631Z,12.95
2016-10-24T04:02:38.232Z,12.97
2016-10-24T04:03:38.598Z,12.85
2016-10-24T04:04:38.156Z,12.87
2016-10-24T04:05:44.347Z,12.84
2016-10-24T04:06:38.115Z,12.93
2016-10-24T04:07:38.099Z,12.88
2016-10-24T04:08:38.043Z,12.85
2016-10-24T04:09:38.017Z,12.77
2016-10-24T04:10:38.416Z,12.75
2016-10-24T04:11:37.956Z,12.75
2016-10-24T04:12:38.789Z,12.81
2016-10-24T04:13:38.014Z,12.89
2016-10-24T04:14:38.365Z,12.85
2016-10-24T04:15:37.822Z,12.88
2016-10-24T04:16:54.192Z,12.87
2016-10-24T04:17:37.796Z,12.88
2016-10-24T04:18:37.832Z,13.03
2016-10-24T04:19:37.994Z,12.96
2016-10-24T04:20:38.060Z,12.95
2016-10-24T04:21:38.426Z,12.88
2016-10-24T04:22:37.673Z,12.89
2016-10-24T04:23:53.050Z,12.96
2016-10-24T04:24:37.946Z,12.82
2016-10-24T04:25:39.585Z,12.84
2016-10-24T04:26:38.042Z,12.85
2016-10-24T04:27:37.902Z,12.93
2016-10-24T04:28:37.917Z,12.96
2016-10-24T04:29:37.509Z,12.89
2016-10-24T04:30:38.202Z,12.92
2016-10-24T04:31:37.378Z,12.84
2016-10-24T04:32:37.319Z,12.89
2016-10-24T04:33:37.308Z,12.88
2016-10-24T04:34:37.265Z,12.89
2016-10-24T04:35:37.643Z,12.87
2016-10-24T04:36:51.903Z,12.81
2016-10-24T04:37:37.201Z,12.87
2016-10-24T04:38:52.211Z,12.95
2016-10-24T04:39:37.113Z,12.79
2016-10-24T04:40:51.786Z,12.87
2016-10-24T04:41:37.800Z,12.87
2016-10-24T04:42:37.489Z,12.89
2016-10-24T04:43:37.529Z,12.96
2016-10-24T04:44:36.961Z,12.92
2016-10-24T04:45:37.469Z,12.95
2016-10-24T04:46:37.289Z,12.95
2016-10-24T04:47:37.239Z,12.93
2016-10-24T04:48:37.562Z,12.92
2016-10-24T04:49:51.920Z,12.96
2016-10-24T04:50:37.883Z,13
2016-10-24T04:51:36.798Z,13.03
2016-10-24T04:52:37.087Z,13.03
2016-10-24T04:53:36.715Z,13.03
2016-10-24T04:54:36.647Z,12.99
2016-10-24T04:55:37.381Z,13.04
2016-10-24T04:56:37.378Z,13.06
2016-10-24T04:57:37.197Z,13.03
2016-10-24T04:58:36.539Z,13.07
2016-10-24T04:59:36.993Z,13.03
2016-10-24T05:00:37.446Z,13.02
2016-10-24T05:01:36.865Z,13.04
2016-10-24T05:03:36.391Z,13.07
2016-10-24T05:04:36.827Z,13.07
2016-10-24T05:05:36.898Z,13.06
2016-10-24T05:06:37.074Z,13.17
2016-10-24T05:07:36.297Z,13.07
2016-10-24T05:08:36.667Z,13.11
2016-10-24T05:09:36.229Z,13.15
2016-10-24T05:10:36.190Z,13.18
2016-10-24T05:11:51.164Z,13.09
2016-10-24T05:12:36.475Z,13.18
2016-10-24T05:13:36.112Z,13.11
2016-10-24T05:14:36.913Z,13.14
2016-10-24T05:15:36.854Z,13.2
2016-10-24T05:16:38.026Z,13.2
2016-10-24T05:17:36.344Z,13.2
2016-10-24T05:18:36.360Z,13.15
2016-10-24T05:19:35.956Z,13.07
2016-10-24T05:20:51.314Z,13.07
2016-10-24T05:21:35.858Z,13.14
2016-10-24T05:22:35.910Z,13.17
2016-10-24T05:23:36.000Z,13.2
2016-10-24T05:24:35.817Z,13.12
2016-10-24T05:25:50.484Z,13.14
2016-10-24T05:26:35.683Z,13.15
2016-10-24T05:27:35.680Z,13.14
2016-10-24T05:28:36.032Z,13.15
2016-10-24T05:29:51.038Z,13.15
2016-10-24T05:30:36.324Z,13.12
2016-10-24T05:31:50.241Z,13.2
2016-10-24T05:32:35.525Z,13.14
2016-10-24T05:33:50.557Z,13.2
2016-10-24T05:34:35.888Z,13.3
2016-10-24T05:35:36.928Z,13.21
2016-10-24T05:36:35.864Z,13.17
2016-10-24T05:37:36.124Z,13.2
2016-10-24T05:38:35.774Z,13.17
2016-10-24T05:39:35.515Z,13.14
2016-10-24T05:40:50.119Z,13.18
2016-10-24T05:41:35.242Z,13.11
2016-10-24T05:42:35.253Z,13.09
2016-10-24T05:43:35.388Z,13.09
2016-10-24T05:44:35.572Z,13.07
2016-10-24T05:46:35.112Z,13.18
2016-10-24T05:47:35.085Z,13.12
2016-10-24T05:48:35.067Z,13.15
2016-10-24T05:49:35.013Z,13.15
2016-10-24T05:50:35.374Z,13.17
2016-10-24T05:51:35.325Z,13.14
2016-10-24T05:52:35.362Z,13.14
2016-10-24T05:53:49.952Z,13.15
2016-10-24T05:54:35.243Z,13.18
2016-10-24T05:55:49.529Z,13.18
2016-10-24T05:56:34.794Z,13.17
2016-10-24T05:57:35.521Z,13.25
2016-10-24T05:58:35.147Z,13.18
2016-10-24T05:59:34.728Z,13.22
2016-10-24T06:00:35.177Z,13.21
2016-10-24T06:01:34.713Z,13.21
2016-10-24T06:02:34.901Z,13.29
2016-10-24T06:03:35.023Z,13.22
2016-10-24T06:04:34.593Z,13.22
2016-10-24T06:05:34.955Z,13.25
2016-10-24T06:06:34.982Z,13.25
2016-10-24T06:07:34.547Z,13.29
2016-10-24T06:08:34.528Z,13.3
2016-10-24T06:09:49.208Z,13.3
2016-10-24T06:10:35.545Z,13.32
2016-10-24T06:11:49.932Z,13.3
2016-10-24T06:12:34.424Z,13.3
2016-10-24T06:13:34.484Z,13.27
2016-10-24T06:14:34.272Z,13.3
2016-10-24T06:15:34.471Z,13.25
2016-10-24T06:16:34.241Z,13.3
2016-10-24T06:17:49.224Z,13.24
2016-10-24T06:18:34.133Z,13.22
2016-10-24T06:19:34.461Z,13.25
2016-10-24T06:20:34.546Z,13.33
2016-10-24T06:21:34.427Z,13.3
2016-10-24T06:22:34.927Z,13.25
2016-10-24T06:23:34.482Z,13.24
2016-10-24T06:24:34.368Z,13.27
2016-10-24T06:25:34.384Z,13.29
2016-10-24T06:26:34.263Z,13.27
2016-10-24T06:27:34.260Z,13.24
2016-10-24T06:28:34.280Z,13.3
2016-10-24T06:29:33.800Z,13.33
2016-10-24T06:30:34.753Z,13.3
2016-10-24T06:31:34.216Z,13.38
2016-10-24T06:32:34.135Z,13.32
2016-10-24T06:33:34.111Z,13.32
2016-10-24T06:34:33.660Z,13.33
2016-10-24T06:35:34.483Z,13.32
2016-10-24T06:37:34.012Z,13.32
2016-10-24T06:38:34.006Z,13.37
2016-10-24T06:39:33.893Z,13.27
2016-10-24T06:40:48.187Z,13.3
2016-10-24T06:41:48.857Z,13.4
2016-10-24T06:42:34.220Z,13.4
2016-10-24T06:43:33.753Z,13.41
2016-10-24T06:44:33.760Z,13.47
2016-10-24T06:46:48.076Z,13.51
2016-10-24T06:47:34.052Z,13.47
2016-10-24T06:48:33.332Z,13.52
2016-10-24T06:49:33.192Z,13.52
2016-10-24T06:50:33.945Z,13.54
2016-10-24T06:51:33.158Z,13.46
2016-10-24T06:52:33.495Z,13.47
2016-10-24T06:53:33.416Z,13.46
2016-10-24T06:54:33.070Z,13.51
2016-10-24T06:55:33.035Z,13.44
2016-10-24T06:56:33.366Z,13.49
2016-10-24T06:57:32.981Z,13.52
2016-10-24T06:58:32.923Z,13.47
2016-10-24T06:59:33.639Z,13.51
2016-10-24T07:00:33.268Z,13.49
2016-10-24T07:01:34.087Z,13.63
2016-10-24T07:02:33.188Z,13.55
2016-10-24T07:03:47.540Z,13.58
2016-10-24T07:04:33.268Z,13.59
2016-10-24T07:05:33.106Z,13.56
2016-10-24T07:06:32.726Z,13.62
2016-10-24T07:07:33.041Z,13.58
2016-10-24T07:08:33.432Z,13.56
2016-10-24T07:09:32.995Z,13.56
2016-10-24T07:10:32.579Z,13.58
2016-10-24T07:12:33.294Z,13.55
2016-10-24T07:13:32.523Z,13.55
2016-10-24T07:14:47.262Z,13.58
2016-10-24T07:15:33.286Z,13.49
2016-10-24T07:17:33.476Z,13.47
2016-10-24T07:18:47.415Z,13.52
2016-10-24T07:19:32.411Z,13.52
2016-10-24T07:20:33.168Z,13.54
2016-10-24T07:21:33.032Z,13.56
2016-10-24T07:22:32.986Z,13.58
2016-10-24T07:23:32.335Z,13.56
2016-10-24T07:24:32.181Z,13.59
2016-10-24T07:25:32.154Z,13.61
2016-10-24T07:26:32.081Z,13.59
2016-10-24T07:27:32.889Z,13.52
2016-10-24T07:28:32.034Z,13.59
2016-10-24T07:29:32.045Z,13.56
2016-10-24T07:30:32.476Z,13.62
2016-10-24T07:31:32.334Z,13.62
2016-10-24T07:32:33.517Z,13.61
2016-10-24T07:33:32.285Z,13.59
2016-10-24T07:34:32.671Z,13.63
2016-10-24T07:35:32.213Z,13.65
2016-10-24T07:36:32.605Z,13.69
2016-10-24T07:37:31.758Z,13.69
2016-10-24T07:38:31.735Z,13.76
2016-10-24T07:39:31.703Z,13.61
2016-10-24T07:40:47.249Z,13.61
2016-10-24T07:41:32.011Z,13.65
2016-10-24T07:43:31.631Z,13.63
2016-10-24T07:44:31.974Z,13.65
2016-10-24T07:45:47.177Z,13.7
2016-10-24T07:46:31.926Z,13.62
2016-10-24T07:47:31.467Z,13.65
2016-10-24T07:48:31.921Z,13.67
2016-10-24T07:50:01.212Z,13.63
2016-10-24T07:50:31.610Z,13.67
2016-10-24T07:51:31.344Z,13.69
2016-10-24T07:52:32.080Z,13.73
2016-10-24T07:53:31.675Z,13.77
2016-10-24T07:54:31.692Z,13.76
2016-10-24T07:55:32.146Z,13.79
2016-10-24T07:57:00.584Z,13.79
2016-10-24T07:57:31.560Z,13.74
2016-10-24T07:58:31.536Z,13.71
2016-10-24T07:59:31.499Z,13.67
2016-10-24T08:00:31.457Z,13.63
2016-10-24T08:01:31.487Z,13.65
2016-10-24T08:02:31.477Z,13.74
2016-10-24T08:03:31.494Z,13.67
2016-10-24T08:04:31.089Z,13.77
2016-10-24T08:05:46.835Z,13.76
2016-10-24T08:06:31.285Z,13.76
2016-10-24T08:08:31.468Z,13.74
2016-10-24T08:09:31.890Z,13.8
2016-10-24T08:10:30.782Z,13.77
2016-10-24T08:12:30.729Z,13.91
2016-10-24T08:13:30.751Z,13.84
2016-10-24T08:14:31.042Z,13.87
2016-10-24T08:15:30.649Z,13.83
2016-10-24T08:16:45.298Z,13.73
2016-10-24T08:17:30.965Z,13.77
2016-10-24T08:18:30.973Z,13.84
2016-10-24T08:19:30.900Z,13.91
2016-10-24T08:20:30.894Z,13.88
2016-10-24T08:22:30.437Z,13.96
2016-10-24T08:23:30.766Z,13.83
2016-10-24T08:24:30.354Z,13.94
2016-10-24T08:25:30.360Z,13.84
2016-10-24T08:26:31.263Z,13.88
2016-10-24T08:27:31.037Z,13.92
2016-10-24T08:28:30.751Z,13.84
2016-10-24T08:29:30.219Z,13.84
2016-10-24T08:30:30.198Z,13.84
2016-10-24T08:31:30.194Z,13.89
2016-10-24T08:32:30.543Z,13.88
2016-10-24T08:33:30.323Z,13.87
2016-10-24T08:34:30.175Z,13.89
2016-10-24T08:35:30.181Z,13.88
2016-10-24T08:36:44.913Z,13.89
2016-10-24T08:37:30.412Z,13.92
2016-10-24T08:38:44.721Z,13.84
2016-10-24T08:39:30.325Z,13.81
2016-10-24T08:40:45.308Z,13.87
2016-10-24T08:41:29.960Z,13.84
2016-10-24T08:42:44.926Z,13.74
2016-10-24T08:43:30.686Z,13.84
2016-10-24T08:44:30.138Z,13.84
2016-10-24T08:45:30.604Z,13.84
2016-10-24T08:46:30.696Z,13.88
2016-10-24T08:47:29.748Z,13.88
2016-10-24T08:48:29.648Z,13.96
2016-10-24T08:49:30.202Z,13.92
2016-10-24T08:50:30.556Z,13.91
2016-10-24T08:51:29.955Z,13.94
2016-10-24T08:52:29.582Z,13.96
2016-10-24T08:53:29.517Z,14.04
2016-10-24T08:54:29.555Z,14.01
2016-10-24T08:56:29.851Z,13.96
2016-10-24T08:57:30.002Z,14.04
2016-10-24T08:58:29.358Z,14.13
2016-10-24T08:59:29.314Z,14.06
2016-10-24T09:00:30.140Z,14.07
2016-10-24T09:01:46.327Z,14.06
2016-10-24T09:02:29.600Z,14.07
2016-10-24T09:03:29.543Z,14.14
2016-10-24T09:04:29.180Z,14.14
2016-10-24T09:05:58.900Z,14.17
2016-10-24T09:06:29.549Z,14.16
2016-10-24T09:08:29.089Z,14.14
2016-10-24T09:09:29.411Z,14.16
2016-10-24T09:10:28.995Z,14.19
2016-10-24T09:11:28.991Z,14.14
2016-10-24T09:12:28.923Z,14.19
2016-10-24T09:13:58.291Z,14.2
2016-10-24T09:14:29.402Z,14.24
2016-10-24T09:15:43.962Z,14.25
2016-10-24T09:16:28.867Z,14.19
2016-10-24T09:17:28.837Z,14.21
2016-10-24T09:18:29.192Z,14.14
2016-10-24T09:19:28.739Z,14.19
2016-10-24T09:20:29.107Z,14.19
2016-10-24T09:21:28.710Z,14.14
2016-10-24T09:22:29.533Z,14.2
2016-10-24T09:23:28.604Z,14.24
2016-10-24T09:24:44.958Z,14.27
2016-10-24T09:25:28.626Z,14.16
2016-10-24T09:26:28.566Z,14.31
2016-10-24T09:27:28.948Z,14.28
2016-10-24T09:28:28.922Z,14.29
2016-10-24T09:30:28.809Z,14.39
2016-10-24T09:31:28.374Z,14.28
2016-10-24T09:32:28.751Z,14.29
2016-10-24T09:33:28.696Z,14.28
2016-10-24T09:34:28.302Z,14.32
2016-10-24T09:35:28.593Z,14.29
2016-10-24T09:36:29.040Z,14.37
2016-10-24T09:37:28.619Z,14.34
2016-10-24T09:38:28.560Z,14.27
2016-10-24T09:39:28.137Z,14.28
2016-10-24T09:40:29.248Z,14.24
2016-10-24T09:41:28.080Z,14.39
2016-10-24T09:42:44.505Z,14.34
2016-10-24T09:43:28.381Z,14.38
2016-10-24T09:44:42.674Z,14.43
2016-10-24T09:45:27.977Z,14.44
2016-10-24T09:46:28.320Z,14.43
2016-10-24T09:47:43.159Z,14.47
2016-10-24T09:50:27.804Z,14.43
2016-10-24T09:51:42.886Z,14.54
2016-10-24T09:52:27.865Z,14.54
2016-10-24T09:53:28.222Z,14.43
2016-10-24T09:54:42.439Z,14.53
2016-10-24T09:55:28.083Z,14.44
2016-10-24T09:57:27.975Z,14.56
2016-10-24T09:58:27.584Z,14.56
2016-10-24T09:59:28.354Z,14.46
2016-10-24T10:01:34.725Z,14.52
2016-10-24T10:02:28.504Z,14.56
2016-10-24T10:03:42.243Z,14.46
2016-10-24T10:04:27.830Z,14.42
2016-10-24T10:05:28.148Z,14.44
2016-10-24T10:06:27.354Z,14.44
2016-10-24T10:07:27.298Z,14.61
2016-10-24T10:08:28.162Z,14.56
2016-10-24T10:09:27.649Z,14.6
2016-10-24T10:10:42.333Z,14.57
2016-10-24T10:11:27.709Z,14.57
2016-10-24T10:12:27.568Z,14.53
2016-10-24T10:13:27.124Z,14.61
2016-10-24T10:14:27.965Z,14.61
2016-10-24T10:15:27.090Z,14.62
2016-10-24T10:16:27.084Z,14.53
2016-10-24T10:17:41.921Z,14.57
2016-10-24T10:18:41.945Z,14.56
2016-10-24T10:19:27.724Z,14.65
2016-10-24T10:20:26.972Z,14.6
2016-10-24T10:21:27.689Z,14.61
2016-10-24T10:22:27.794Z,14.61
2016-10-24T10:23:27.052Z,14.6
2016-10-24T10:25:26.866Z,14.61
2016-10-24T10:26:26.763Z,14.61
2016-10-24T10:27:27.072Z,14.62
2016-10-24T10:28:27.504Z,14.56
2016-10-24T10:29:27.052Z,14.64
2016-10-24T10:30:26.674Z,14.57
2016-10-24T10:31:26.642Z,14.61
2016-10-24T10:32:26.580Z,14.61
2016-10-24T10:33:26.592Z,14.56
2016-10-24T10:34:26.924Z,14.57
2016-10-24T10:36:26.610Z,14.62
2016-10-24T10:37:27.254Z,14.6
2016-10-24T10:38:26.864Z,14.65
2016-10-24T10:39:26.763Z,14.64
2016-10-24T10:40:26.428Z,14.67
2016-10-24T10:41:26.775Z,14.68
2016-10-24T10:42:26.367Z,14.64
2016-10-24T10:43:26.674Z,14.67
2016-10-24T10:44:40.909Z,14.62
2016-10-24T10:45:26.248Z,14.68
2016-10-24T10:46:26.996Z,14.64
2016-10-24T10:47:26.134Z,14.67
2016-10-24T10:48:26.098Z,14.72
2016-10-24T10:49:41.067Z,14.71
2016-10-24T10:50:26.085Z,14.67
2016-10-24T10:51:29.388Z,14.64
2016-10-24T10:52:26.040Z,14.6
2016-10-24T10:53:42.788Z,14.57
2016-10-24T10:54:25.993Z,14.56
2016-10-24T10:55:25.911Z,14.62
2016-10-24T10:56:25.968Z,14.57
2016-10-24T10:57:26.309Z,14.57
2016-10-24T10:58:26.252Z,14.64
2016-10-24T10:59:25.850Z,14.56
2016-10-24T11:01:27.448Z,14.64
2016-10-24T11:03:25.821Z,14.68
2016-10-24T11:04:30.061Z,14.71
2016-10-24T11:05:26.164Z,14.68
2016-10-24T11:06:40.302Z,14.67
2016-10-24T11:07:25.712Z,14.68
2016-10-24T11:08:25.629Z,14.69
2016-10-24T11:10:26.038Z,14.68
2016-10-24T11:11:25.802Z,14.64
2016-10-24T11:12:25.842Z,14.69
2016-10-24T11:14:25.752Z,14.65
2016-10-24T11:15:40.068Z,14.69
2016-10-24T11:16:25.283Z,14.74
2016-10-24T11:17:25.684Z,14.72
2016-10-24T11:18:25.624Z,14.72
2016-10-24T11:19:25.579Z,14.75
2016-10-24T11:20:25.945Z,14.67
2016-10-24T11:21:25.577Z,14.67
2016-10-24T11:22:27.709Z,14.68
2016-10-24T11:23:25.088Z,14.69
2016-10-24T11:24:40.222Z,14.61
2016-10-24T11:25:25.047Z,14.54
2016-10-24T11:26:39.700Z,14.61
2016-10-24T11:27:24.964Z,14.68
2016-10-24T11:28:40.086Z,14.65
2016-10-24T11:29:24.898Z,14.67
2016-10-24T11:30:25.296Z,14.68
2016-10-24T11:31:39.524Z,14.71
2016-10-24T11:32:41.507Z,14.62
2016-10-24T11:33:25.323Z,14.71
2016-10-24T11:34:25.190Z,14.72
2016-10-24T11:35:25.730Z,14.67
2016-10-24T11:36:24.696Z,14.78
2016-10-24T11:37:25.298Z,14.87
2016-10-24T11:38:24.638Z,14.81
2016-10-24T11:39:39.306Z,14.81
2016-10-24T11:40:26.275Z,14.72
2016-10-24T11:41:24.724Z,14.8
2016-10-24T11:42:25.033Z,14.81
2016-10-24T11:43:24.513Z,14.87
2016-10-24T11:44:39.145Z,14.81
2016-10-24T11:45:39.477Z,14.86
2016-10-24T11:46:24.445Z,14.74
2016-10-24T11:47:25.163Z,14.8
2016-10-24T11:49:24.285Z,14.93
2016-10-24T11:50:24.266Z,14.91
2016-10-24T11:51:24.689Z,14.88
2016-10-24T11:52:24.844Z,14.93
2016-10-24T11:53:24.355Z,14.94
2016-10-24T11:54:38.916Z,14.93
2016-10-24T11:55:39.288Z,14.9
2016-10-24T11:56:24.620Z,14.9
2016-10-24T11:58:24.041Z,14.94
2016-10-24T11:59:24.480Z,14.95
2016-10-24T12:01:24.715Z,15.05
2016-10-24T12:02:24.312Z,14.94
2016-10-24T12:03:24.608Z,14.99
2016-10-24T12:05:24.346Z,15.06
2016-10-24T12:06:38.616Z,15.05
2016-10-24T12:07:23.796Z,15.03
2016-10-24T12:09:44.926Z,15.01
2016-10-24T12:10:23.737Z,15.03
2016-10-24T12:11:24.052Z,15.03
2016-10-24T12:12:24.590Z,15.06
2016-10-24T12:13:24.063Z,15.08
2016-10-24T12:14:24.247Z,15.03
2016-10-24T12:15:23.552Z,15.01
2016-10-24T12:16:23.509Z,15.06
2016-10-24T12:17:23.952Z,15.03
2016-10-24T12:18:23.468Z,15.05
2016-10-24T12:19:23.747Z,15.05
2016-10-24T12:20:23.868Z,15.12
2016-10-24T12:21:23.768Z,15.02
2016-10-24T12:22:23.393Z,15.15
2016-10-24T12:23:23.710Z,15.11
2016-10-24T12:24:23.662Z,15.11
2016-10-24T12:25:23.309Z,15.15
2016-10-24T12:26:23.226Z,15.13
2016-10-24T12:27:23.196Z,15.15
2016-10-24T12:28:23.240Z,15.24
2016-10-24T12:29:23.516Z,15.26
2016-10-24T12:30:38.169Z,15.36
2016-10-24T12:31:23.105Z,15.23
2016-10-24T12:32:37.737Z,15.21
2016-10-24T12:33:23.428Z,15.24
2016-10-24T12:34:23.410Z,15.21
2016-10-24T12:35:22.957Z,15.23
2016-10-24T12:36:23.033Z,15.26
2016-10-24T12:37:22.910Z,15.26
2016-10-24T12:38:22.888Z,15.2
2016-10-24T12:39:23.358Z,15.26
2016-10-24T12:40:22.834Z,15.26
2016-10-24T12:41:22.815Z,15.26
2016-10-24T12:42:25.103Z,15.2
2016-10-24T12:43:23.515Z,15.3
2016-10-24T12:44:22.713Z,15.23
2016-10-24T12:45:22.682Z,15.13
2016-10-24T12:46:22.674Z,15.23
2016-10-24T12:47:23.365Z,15.23
2016-10-24T12:48:22.965Z,15.28
2016-10-24T12:49:23.024Z,15.23
2016-10-24T12:50:23.852Z,15.21
2016-10-24T12:51:24.412Z,15.28
2016-10-24T12:52:22.787Z,15.28
2016-10-24T12:53:22.440Z,15.26
2016-10-24T12:54:22.422Z,15.28
2016-10-24T12:55:22.393Z,15.26
2016-10-24T12:56:22.816Z,15.27
2016-10-24T12:57:51.752Z,15.27
2016-10-24T12:58:22.744Z,15.28
2016-10-24T12:59:22.298Z,15.23
2016-10-24T13:01:22.916Z,15.31
2016-10-24T13:02:22.261Z,15.24
2016-10-24T13:03:22.156Z,15.31
2016-10-24T13:04:22.118Z,15.24
2016-10-24T13:05:22.443Z,15.35
2016-10-24T13:06:22.460Z,15.31
2016-10-24T13:08:22.455Z,15.24
2016-10-24T13:09:22.335Z,15.26
2016-10-24T13:10:22.355Z,15.23
2016-10-24T13:11:21.973Z,15.36
2016-10-24T13:12:21.923Z,15.26
2016-10-24T13:13:21.860Z,15.3
2016-10-24T13:14:21.828Z,15.38
2016-10-24T13:15:22.888Z,15.38
2016-10-24T13:16:21.788Z,15.36
2016-10-24T13:17:21.835Z,15.43
2016-10-24T13:19:22.157Z,15.49
2016-10-24T13:20:22.121Z,15.43
2016-10-24T13:21:36.908Z,15.41
2016-10-24T13:22:36.692Z,15.46
2016-10-24T13:23:21.724Z,15.49
2016-10-24T13:24:36.710Z,15.48
2016-10-24T13:25:21.525Z,15.49
2016-10-24T13:26:36.170Z,15.52
2016-10-24T13:27:21.918Z,15.43
2016-10-24T13:28:21.865Z,15.43
2016-10-24T13:29:21.449Z,15.48
2016-10-24T13:30:21.505Z,15.45
2016-10-24T13:31:21.457Z,15.48
2016-10-24T13:32:21.314Z,15.45
2016-10-24T13:33:21.312Z,15.41
2016-10-24T13:34:22.108Z,15.45
2016-10-24T13:35:21.418Z,15.56
2016-10-24T13:36:21.200Z,15.48
2016-10-24T13:37:21.540Z,15.49
2016-10-24T13:38:21.738Z,15.52
2016-10-24T13:40:37.565Z,15.46
2016-10-24T13:41:21.254Z,15.46
2016-10-24T13:42:21.072Z,15.49
2016-10-24T13:43:21.133Z,15.33
2016-10-24T13:44:35.783Z,15.41
2016-10-24T13:46:21.096Z,15.45
2016-10-24T13:47:20.863Z,15.43
2016-10-24T13:49:20.874Z,15.36
2016-10-24T13:50:35.493Z,15.45
2016-10-24T13:51:20.780Z,15.41
2016-10-24T13:52:20.733Z,15.46
2016-10-24T13:53:21.285Z,15.43
2016-10-24T13:54:21.261Z,15.35
2016-10-24T13:55:21.507Z,15.35